createdAt,value
2022-11-16T00:00:34.366Z,58.80
2022-11-16T00:03:40.726Z,54.30
2022-11-16T00:17:47.361Z,60.10
2022-11-16T00:21:09.134Z,57.20
2022-11-16T00:24:28.225Z,58.80
2022-11-16T00:27:12.930Z,58.00
2022-11-16T00:30:16.072Z,60.00
2022-11-16T00:33:18.313Z,63.00
2022-11-16T00:35:54.981Z,57.90
2022-11-16T00:39:10.908Z,57.30
2022-11-16T00:41:57.528Z,56.30
2022-11-16T00:46:03.738Z,57.00
2022-11-16T00:47:31.290Z,54.60
2022-11-16T00:59:55.258Z,56.40
2022-11-16T01:11:53.385Z,55.40
2022-11-16T01:17:24.967Z,52.20
2022-11-16T01:20:20.409Z,51.90
2022-11-16T01:23:27.272Z,56.70
2022-11-16T01:29:52.278Z,57.50
2022-11-16T01:33:09.959Z,57.60
2022-11-16T01:35:54.730Z,52.70
2022-11-16T01:39:03.472Z,54.60
2022-11-16T01:46:50.110Z,52.20
2022-11-16T01:54:11.677Z,51.40
2022-11-16T01:57:42.825Z,52.60
2022-11-16T02:00:35.981Z,51.00
2022-11-16T02:03:35.091Z,48.80
2022-11-16T02:06:41.806Z,51.20
2022-11-16T02:10:04.145Z,52.50
2022-11-16T02:13:03.015Z,53.20
2022-11-16T02:20:52.819Z,49.80
2022-11-16T02:24:59.198Z,46.20
2022-11-16T02:28:38.878Z,44.80
2022-11-16T02:31:51.569Z,45.60
2022-11-16T02:34:58.298Z,44.70
2022-11-16T02:38:21.941Z,44.10
2022-11-16T02:41:33.938Z,44.90
2022-11-16T02:45:14.618Z,43.00
2022-11-16T02:47:44.164Z,39.10
2022-11-16T02:51:20.232Z,40.10
2022-11-16T02:57:46.309Z,34.10
2022-11-16T03:00:29.017Z,35.60
2022-11-16T03:07:12.799Z,36.20
2022-11-16T03:09:57.013Z,36.20
2022-11-16T03:13:12.740Z,37.80
2022-11-16T03:17:42.300Z,37.30
2022-11-16T03:20:02.755Z,38.40
2022-11-16T03:23:02.168Z,37.80
2022-11-16T03:26:33.442Z,38.90
2022-11-16T03:29:30.936Z,35.30
2022-11-16T03:32:47.971Z,39.40
2022-11-16T03:36:16.868Z,36.90
2022-11-16T03:39:18.901Z,35.10
2022-11-16T03:42:31.699Z,36.40
2022-11-16T03:49:18.207Z,34.10
2022-11-16T03:55:27.904Z,35.10
2022-11-16T03:58:33.132Z,37.50
2022-11-16T04:01:09.622Z,33.70
2022-11-16T04:03:58.617Z,33.30
2022-11-16T04:06:54.576Z,34.40
2022-11-16T04:09:58.166Z,31.80
2022-11-16T04:13:14.301Z,32.60
2022-11-16T04:16:32.256Z,30.50
2022-11-16T04:20:14.340Z,28.90
2022-11-16T04:23:31.476Z,28.40
2022-11-16T04:26:12.034Z,31.00
2022-11-16T04:29:15.174Z,30.60
2022-11-16T04:32:17.179Z,32.00
2022-11-16T04:35:11.268Z,32.70
2022-11-16T04:38:00.383Z,30.90
2022-11-16T04:41:06.825Z,32.00
2022-11-16T04:44:42.381Z,31.10
2022-11-16T04:47:26.255Z,30.60
2022-11-16T04:50:16.288Z,30.70
2022-11-16T04:53:39.196Z,30.70
2022-11-16T04:56:46.659Z,29.60
2022-11-16T05:09:51.884Z,31.70
2022-11-16T05:13:13.102Z,32.30
2022-11-16T05:16:41.866Z,28.50
2022-11-16T05:20:00.580Z,29.70
2022-11-16T05:23:10.492Z,32.00
2022-11-16T05:25:59.339Z,30.00
2022-11-16T05:29:34.354Z,30.90
2022-11-16T05:33:22.312Z,31.50
2022-11-16T05:36:56.553Z,30.40
2022-11-16T05:40:05.061Z,30.00
2022-11-16T05:50:27.364Z,29.30
2022-11-16T05:54:02.378Z,29.00
2022-11-16T05:56:50.331Z,28.50
2022-11-16T05:59:38.055Z,30.80
2022-11-16T06:02:24.554Z,30.10
2022-11-16T06:06:03.149Z,29.50
2022-11-16T06:12:15.188Z,28.40
2022-11-16T06:18:52.034Z,29.80
2022-11-16T06:22:30.543Z,29.90
2022-11-16T06:36:30.664Z,34.00
2022-11-16T06:50:21.664Z,31.60
2022-11-16T07:01:12.844Z,29.20
2022-11-16T07:04:49.851Z,32.30
2022-11-16T07:20:51.874Z,29.60
2022-11-16T07:29:36.355Z,29.50
2022-11-16T07:32:31.181Z,28.70
2022-11-16T07:35:36.612Z,28.40
2022-11-16T07:38:59.421Z,29.20
2022-11-16T07:41:46.835Z,26.30
2022-11-16T07:44:35.313Z,23.30
2022-11-16T07:48:08.977Z,24.60
2022-11-16T07:51:26.780Z,26.80
2022-11-16T07:54:48.451Z,24.60
2022-11-16T08:02:28.969Z,24.30
2022-11-16T08:14:26.794Z,21.10
2022-11-16T08:16:43.996Z,23.30
2022-11-16T08:19:58.046Z,23.00
2022-11-16T08:24:59.077Z,19.70
2022-11-16T08:44:13.176Z,19.50
2022-11-16T08:47:28.127Z,20.30
2022-11-16T09:05:01.837Z,18.50
2022-11-16T09:08:10.606Z,16.50
2022-11-16T09:11:15.845Z,17.20
2022-11-16T09:14:43.290Z,16.30
2022-11-16T09:18:06.807Z,18.10
2022-11-16T09:22:26.060Z,16.10
2022-11-16T09:31:51.677Z,17.80
2022-11-16T09:41:20.892Z,15.90
2022-11-16T09:45:54.227Z,15.10
2022-11-16T09:49:37.529Z,15.70
2022-11-16T09:57:58.499Z,15.40
2022-11-16T10:00:50.685Z,14.70
2022-11-16T10:04:25.840Z,16.20
2022-11-16T10:15:08.972Z,19.80
2022-11-16T10:22:17.827Z,18.90
2022-11-16T10:26:51.439Z,18.40
2022-11-16T10:34:08.160Z,19.30
2022-11-16T10:37:14.248Z,18.60
2022-11-16T10:44:27.026Z,17.50
2022-11-16T10:47:44.285Z,14.80
2022-11-16T10:50:42.638Z,16.80
2022-11-16T10:56:34.726Z,15.10
2022-11-16T10:59:28.135Z,15.40
2022-11-16T11:02:26.346Z,17.40
2022-11-16T11:05:08.028Z,18.50
2022-11-16T11:07:39.605Z,19.70
2022-11-16T11:10:34.175Z,19.50
2022-11-16T11:13:13.441Z,18.80
2022-11-16T11:15:45.560Z,19.00
2022-11-16T11:18:50.722Z,19.40
2022-11-16T11:21:52.063Z,17.80
2022-11-16T11:24:45.046Z,15.90
2022-11-16T11:27:24.082Z,19.10
2022-11-16T11:29:58.264Z,19.10
2022-11-16T11:32:55.495Z,17.20
2022-11-16T11:36:09.735Z,17.70
2022-11-16T11:39:25.028Z,15.10
2022-11-16T11:42:34.426Z,14.10
2022-11-16T11:45:19.558Z,16.00
2022-11-16T11:48:42.177Z,13.90
2022-11-16T11:51:43.903Z,13.70
2022-11-16T11:54:43.134Z,13.40
2022-11-16T11:57:25.201Z,11.60
2022-11-16T12:04:16.424Z,13.60
2022-11-16T12:07:26.335Z,15.10
2022-11-16T12:10:42.214Z,14.40
2022-11-16T12:14:13.830Z,13.30
2022-11-16T12:17:07.239Z,12.20
2022-11-16T12:19:53.514Z,13.40
2022-11-16T12:23:04.013Z,13.30
2022-11-16T12:26:15.230Z,11.30
2022-11-16T12:29:54.082Z,11.10
2022-11-16T12:33:00.308Z,10.40
2022-11-16T12:36:45.882Z,10.00
2022-11-16T12:39:31.088Z,11.70
2022-11-16T12:42:07.871Z,11.20
2022-11-16T12:45:25.257Z,10.20
2022-11-16T12:48:51.684Z,10.50
2022-11-16T12:51:48.182Z,9.50
2022-11-16T12:55:24.957Z,9.70
2022-11-16T12:58:35.218Z,8.90
2022-11-16T13:01:48.213Z,9.10
2022-11-16T13:04:34.837Z,10.40
2022-11-16T13:07:26.326Z,9.00
2022-11-16T13:10:36.901Z,7.40
2022-11-16T13:14:02.208Z,9.30
2022-11-16T13:17:02.218Z,7.60
2022-11-16T13:19:41.185Z,10.50
2022-11-16T13:22:26.026Z,7.90
2022-11-16T13:25:44.205Z,7.60
2022-11-16T13:28:58.203Z,9.40
2022-11-16T13:31:58.816Z,10.50
2022-11-16T13:34:44.926Z,10.10
2022-11-16T13:37:39.947Z,11.60
2022-11-16T13:40:38.130Z,10.80
2022-11-16T13:43:23.109Z,11.10
2022-11-16T13:46:04.208Z,11.00
2022-11-16T13:48:37.674Z,10.30
2022-11-16T13:51:21.335Z,11.30
2022-11-16T13:54:43.980Z,9.70
2022-11-16T13:57:34.934Z,11.50
2022-11-16T14:00:20.388Z,13.50
2022-11-16T14:03:10.972Z,10.90
2022-11-16T14:05:48.466Z,9.40
2022-11-16T14:08:23.467Z,6.80
2022-11-16T14:10:51.621Z,7.70
2022-11-16T14:13:41.415Z,8.40
2022-11-16T14:16:43.449Z,12.30
2022-11-16T14:20:06.807Z,10.00
2022-11-16T14:24:05.387Z,10.50
2022-11-16T14:26:59.105Z,6.90
2022-11-16T14:30:01.695Z,7.40
2022-11-16T14:32:43.482Z,8.50
2022-11-16T14:35:37.739Z,8.00
2022-11-16T14:38:51.812Z,8.10
2022-11-16T14:41:28.391Z,6.50
2022-11-16T14:44:04.450Z,6.90
2022-11-16T14:46:59.028Z,7.60
2022-11-16T14:49:37.339Z,6.00
2022-11-16T14:52:09.318Z,7.10
2022-11-16T14:55:21.495Z,8.10
2022-11-16T14:58:20.900Z,7.70
2022-11-16T15:00:56.767Z,11.60
2022-11-16T15:03:54.525Z,11.40
2022-11-16T15:06:57.712Z,7.40
2022-11-16T15:10:01.699Z,7.90
2022-11-16T15:12:53.085Z,8.50
2022-11-16T15:15:32.445Z,6.80
2022-11-16T15:18:04.964Z,8.70
2022-11-16T15:20:56.938Z,7.00
2022-11-16T15:24:15.619Z,10.20
2022-11-16T15:27:38.094Z,8.50
2022-11-16T15:30:30.699Z,7.70
2022-11-16T15:33:14.237Z,7.30
2022-11-16T15:35:53.029Z,9.40
2022-11-16T15:38:48.092Z,8.50
2022-11-16T15:41:22.305Z,10.80
2022-11-16T15:44:13.424Z,11.10
2022-11-16T15:46:51.372Z,11.70
2022-11-16T15:49:52.573Z,9.90
2022-11-16T15:53:04.054Z,9.30
2022-11-16T15:55:55.879Z,10.30
2022-11-16T16:00:16.487Z,10.50
2022-11-16T16:01:44.827Z,12.30
2022-11-16T16:04:17.482Z,10.60
2022-11-16T16:07:00.343Z,10.60
2022-11-16T16:09:43.954Z,7.00
2022-11-16T16:12:36.271Z,8.40
2022-11-16T16:15:31.002Z,7.00
2022-11-16T16:18:38.130Z,8.30
2022-11-16T16:21:59.440Z,10.10
2022-11-16T16:25:07.500Z,7.70
2022-11-16T16:27:52.982Z,6.30
2022-11-16T16:30:51.828Z,7.10
2022-11-16T16:33:35.368Z,10.80
2022-11-16T16:36:15.215Z,7.90
2022-11-16T16:38:52.738Z,7.70
2022-11-16T16:41:44.524Z,6.70
2022-11-16T16:44:19.356Z,6.60
2022-11-16T16:47:03.586Z,6.80
2022-11-16T16:49:41.212Z,6.70
2022-11-16T16:52:25.856Z,7.80
2022-11-16T16:54:54.428Z,9.60
2022-11-16T16:57:25.402Z,9.40
2022-11-16T17:02:37.744Z,11.70
2022-11-16T17:05:13.773Z,8.50
2022-11-16T17:07:42.709Z,8.70
2022-11-16T17:10:15.438Z,8.10
2022-11-16T17:12:52.421Z,6.70
2022-11-16T17:16:00.773Z,7.70
2022-11-16T17:18:54.773Z,8.80
2022-11-16T17:21:36.709Z,10.90
2022-11-16T17:24:54.406Z,8.30
2022-11-16T17:30:24.569Z,7.00
2022-11-16T17:32:53.268Z,7.40
2022-11-16T17:35:26.859Z,9.10
2022-11-16T17:38:00.767Z,7.60
2022-11-16T17:40:59.045Z,6.20
2022-11-16T17:43:29.063Z,5.90
2022-11-16T17:46:19.867Z,6.10
2022-11-16T17:48:52.024Z,6.00
2022-11-16T17:51:27.872Z,6.60
2022-11-16T17:54:05.578Z,9.10
2022-11-16T17:56:44.401Z,8.10
2022-11-16T17:59:12.469Z,7.60
2022-11-16T18:01:42.024Z,5.80
2022-11-16T18:04:11.382Z,6.10
2022-11-16T18:06:39.689Z,6.90
2022-11-16T18:09:07.743Z,7.90
2022-11-16T18:11:37.327Z,7.40
2022-11-16T18:14:10.537Z,7.90
2022-11-16T18:16:41.966Z,6.90
2022-11-16T18:19:17.422Z,7.20
2022-11-16T18:21:46.862Z,6.50
2022-11-16T18:24:17.580Z,7.00
2022-11-16T18:26:50.109Z,7.10
2022-11-16T18:29:21.341Z,6.30
2022-11-16T18:31:52.222Z,6.40
2022-11-16T18:34:25.876Z,6.80
2022-11-16T18:37:07.711Z,7.00
2022-11-16T18:39:40.907Z,7.70
2022-11-16T18:42:15.096Z,6.40
2022-11-16T18:44:49.290Z,7.20
2022-11-16T18:47:26.230Z,7.00
2022-11-16T18:49:58.518Z,6.50
2022-11-16T18:52:35.983Z,8.20
2022-11-16T18:55:19.522Z,8.60
2022-11-16T18:58:22.716Z,9.00
2022-11-16T19:01:11.703Z,8.50
2022-11-16T19:03:40.384Z,8.30
2022-11-16T19:06:11.492Z,7.70
2022-11-16T19:08:59.601Z,7.90
2022-11-16T19:11:36.151Z,9.90
2022-11-16T19:14:14.151Z,7.90
2022-11-16T19:16:57.499Z,8.70
2022-11-16T19:19:35.171Z,8.40
2022-11-16T19:22:05.261Z,7.90
2022-11-16T19:24:44.362Z,9.70
2022-11-16T19:27:13.328Z,8.40
2022-11-16T19:29:58.239Z,7.80
2022-11-16T19:33:16.632Z,8.40
2022-11-16T19:35:55.195Z,9.20
2022-11-16T19:38:50.239Z,7.20
2022-11-16T19:41:25.394Z,8.40
2022-11-16T19:44:18.286Z,11.10
2022-11-16T19:47:18.719Z,12.50
2022-11-16T19:49:58.365Z,9.00
2022-11-16T19:52:49.154Z,8.30
2022-11-16T19:55:20.501Z,11.20
2022-11-16T19:58:04.100Z,9.00
2022-11-16T20:00:35.268Z,8.40
2022-11-16T20:03:17.991Z,8.80
2022-11-16T20:06:46.601Z,8.80
2022-11-16T20:09:34.690Z,9.30
2022-11-16T20:12:14.625Z,10.00
2022-11-16T20:14:52.711Z,8.20
2022-11-16T20:17:31.908Z,8.70
2022-11-16T20:20:09.509Z,9.00
2022-11-16T20:22:43.442Z,10.00
2022-11-16T20:25:23.878Z,8.60
2022-11-16T20:28:17.366Z,9.00
2022-11-16T20:34:14.683Z,8.60
2022-11-16T20:37:14.148Z,8.70
2022-11-16T20:40:01.925Z,9.30
2022-11-16T20:42:50.312Z,10.10
2022-11-16T20:45:42.948Z,10.60
2022-11-16T20:48:39.431Z,9.10
2022-11-16T20:51:25.075Z,10.00
2022-11-16T20:54:04.406Z,10.30
2022-11-16T20:57:07.990Z,9.90
2022-11-16T20:59:55.262Z,10.50
2022-11-16T21:02:37.429Z,9.90
2022-11-16T21:06:16.293Z,10.20
2022-11-16T21:08:50.805Z,10.30
2022-11-16T21:12:05.613Z,10.30
2022-11-16T21:14:46.157Z,9.00
2022-11-16T21:17:29.341Z,10.30
2022-11-16T21:20:31.624Z,9.10
2022-11-16T21:23:14.294Z,9.60
2022-11-16T21:26:20.185Z,8.50
2022-11-16T21:29:05.509Z,9.40
2022-11-16T21:31:57.939Z,9.80
2022-11-16T21:34:28.258Z,10.10
2022-11-16T21:37:19.452Z,9.50
2022-11-16T21:39:54.558Z,10.80
2022-11-16T21:47:02.336Z,11.00
2022-11-16T21:50:24.900Z,9.60
2022-11-16T21:53:11.672Z,10.60
2022-11-16T21:59:55.887Z,10.70
2022-11-16T22:02:32.413Z,10.60
2022-11-16T22:05:42.055Z,10.60
2022-11-16T22:08:35.552Z,10.40
2022-11-16T22:11:13.452Z,11.00
2022-11-16T22:14:43.377Z,11.40
2022-11-16T22:17:14.182Z,10.90
2022-11-16T22:19:49.994Z,10.20
2022-11-16T22:22:19.498Z,11.50
2022-11-16T22:25:01.420Z,10.60
2022-11-16T22:27:46.997Z,10.90
2022-11-16T22:31:07.311Z,9.10
2022-11-16T22:34:10.392Z,9.80
2022-11-16T22:37:46.335Z,10.70
2022-11-16T22:40:39.568Z,9.80
2022-11-16T22:43:28.428Z,9.20
2022-11-16T22:46:15.636Z,11.40
2022-11-16T22:49:02.379Z,10.30
2022-11-16T22:51:41.216Z,9.10
2022-11-16T22:54:31.353Z,9.20
2022-11-16T22:57:39.823Z,9.90
2022-11-16T23:01:14.079Z,8.80
2022-11-16T23:03:56.432Z,9.80
2022-11-16T23:06:34.003Z,10.20
2022-11-16T23:09:13.553Z,9.10
2022-11-16T23:12:42.446Z,9.10
2022-11-16T23:15:51.539Z,9.70
2022-11-16T23:18:28.924Z,8.70
2022-11-16T23:21:19.938Z,9.10
2022-11-16T23:24:08.892Z,9.40
2022-11-16T23:27:00.358Z,9.10
2022-11-16T23:29:36.457Z,8.20
2022-11-16T23:32:11.910Z,8.70
2022-11-16T23:34:53.551Z,8.60
2022-11-16T23:37:26.612Z,8.00
2022-11-16T23:40:04.422Z,8.90
2022-11-16T23:43:08.318Z,8.90
2022-11-16T23:45:56.850Z,8.60
2022-11-16T23:49:01.385Z,9.30
2022-11-16T23:51:37.682Z,7.80
2022-11-16T23:54:22.974Z,8.30
2022-11-16T23:57:00.725Z,8.00
2022-11-16T23:59:32.069Z,7.80
